Terminal Aerodrome Forecast
Issued by NWS Sterling, VA

Current Version | Previous Version | Graphics & Text | Print | Product List | Glossary On
Versions: 1 2 3 4 5 6 7 8 9 10 11 12 13 14 15 16 17 18 19 20 21 22 23
045
FTUS41 KLWX 211128
TAFMRB
TAF
KMRB 211128Z 2112/2212 09007KT 3SM RA BR OVC020
     FM211500 09009KT 3SM -RA BR OVC008
     FM211700 09007KT 5SM BR OVC008
     FM212000 06007KT 5SM BR OVC015
     FM212300 02006KT 5SM BR OVC010
     FM220000 02005KT 3SM -SHRA BR OVC010=

USA.gov is the U.S. government's official web portal to all federal, state and local government web resources and services.